createdAt,value
2023-08-19T00:01:11.022Z,52.18
2023-08-19T00:03:38.417Z,51.94
2023-08-19T00:06:08.462Z,52.16
2023-08-19T00:08:35.495Z,52.16
2023-08-19T00:11:02.731Z,52.18
2023-08-19T00:13:29.649Z,52.23
2023-08-19T00:15:56.067Z,52.33
2023-08-19T00:18:22.517Z,52.34
2023-08-19T00:20:51.130Z,52.41
2023-08-19T00:23:18.080Z,52.57
2023-08-19T00:25:44.889Z,52.41
2023-08-19T00:28:11.343Z,52.67
2023-08-19T00:30:37.864Z,52.68
2023-08-19T00:33:04.796Z,52.60
2023-08-19T00:35:33.358Z,52.40
2023-08-19T00:38:00.011Z,52.36
2023-08-19T00:40:26.452Z,52.46
2023-08-19T00:42:53.010Z,52.34
2023-08-19T00:45:19.542Z,52.60
2023-08-19T00:47:47.033Z,52.52
2023-08-19T00:50:14.053Z,52.26
2023-08-19T00:52:41.259Z,52.57
2023-08-19T00:55:08.554Z,52.32
2023-08-19T00:57:37.722Z,52.60
2023-08-19T01:00:05.560Z,52.33
2023-08-19T01:02:32.123Z,52.49
2023-08-19T01:04:59.365Z,52.47
2023-08-19T01:07:49.677Z,52.35
2023-08-19T01:10:43.153Z,52.34
2023-08-19T01:13:15.340Z,52.66
2023-08-19T01:15:53.938Z,52.99
2023-08-19T01:18:20.979Z,52.70
2023-08-19T01:20:47.704Z,52.76
2023-08-19T01:23:19.895Z,53.03
2023-08-19T01:25:46.735Z,52.99
2023-08-19T01:28:15.104Z,53.23
2023-08-19T01:30:42.246Z,52.82
2023-08-19T01:33:08.824Z,53.04
2023-08-19T01:35:50.474Z,53.04
2023-08-19T01:38:25.155Z,53.35
2023-08-19T01:40:52.461Z,53.09
2023-08-19T01:43:19.638Z,53.42
2023-08-19T01:45:46.052Z,53.18
2023-08-19T01:48:12.459Z,53.11
2023-08-19T01:50:38.878Z,53.17
2023-08-19T01:53:05.352Z,53.46
2023-08-19T01:55:31.734Z,53.44
2023-08-19T01:57:58.134Z,53.08
2023-08-19T02:00:24.488Z,53.22
2023-08-19T02:02:51.103Z,53.04
2023-08-19T02:05:17.592Z,53.26
2023-08-19T02:07:44.161Z,53.44
2023-08-19T02:10:12.593Z,53.36
2023-08-19T02:12:39.107Z,53.09
2023-08-19T02:15:06.141Z,53.36
2023-08-19T02:17:32.786Z,52.92
2023-08-19T02:19:59.449Z,53.17
2023-08-19T02:22:25.876Z,53.46
2023-08-19T02:24:52.253Z,53.30
2023-08-19T02:27:18.633Z,53.16
2023-08-19T02:29:44.977Z,53.23
2023-08-19T02:32:11.971Z,53.52
2023-08-19T02:34:38.430Z,53.35
2023-08-19T02:37:04.842Z,53.56
2023-08-19T02:39:31.183Z,53.51
2023-08-19T02:41:57.561Z,53.67
2023-08-19T02:44:23.929Z,53.66
2023-08-19T02:46:50.360Z,53.60
2023-08-19T02:49:16.797Z,53.55
2023-08-19T02:51:43.173Z,53.51
2023-08-19T02:54:12.456Z,53.56
2023-08-19T02:56:38.815Z,53.32
2023-08-19T02:59:05.205Z,53.69
2023-08-19T03:01:31.569Z,53.49
2023-08-19T03:03:57.938Z,53.54
2023-08-19T03:06:24.298Z,53.82
2023-08-19T03:08:50.703Z,53.78
2023-08-19T03:11:17.084Z,53.27
2023-08-19T03:13:43.490Z,53.72
2023-08-19T03:16:09.881Z,53.77
2023-08-19T03:18:36.261Z,53.67
2023-08-19T03:21:02.743Z,53.73
2023-08-19T03:23:29.434Z,53.89
2023-08-19T03:25:56.634Z,54.13
2023-08-19T03:28:23.595Z,54.31
2023-08-19T03:30:49.977Z,53.99
2023-08-19T03:33:16.605Z,53.64
2023-08-19T03:35:43.200Z,53.62
2023-08-19T03:38:09.923Z,53.86
2023-08-19T03:40:37.193Z,53.95
2023-08-19T03:43:04.770Z,53.48
2023-08-19T03:45:34.010Z,53.42
2023-08-19T03:48:00.596Z,53.43
2023-08-19T03:50:27.154Z,53.61
2023-08-19T03:52:53.507Z,53.65
2023-08-19T03:55:19.903Z,53.32
2023-08-19T03:57:46.298Z,53.65
2023-08-19T04:00:12.942Z,53.45
2023-08-19T04:02:39.354Z,53.35
2023-08-19T04:05:08.834Z,53.46
2023-08-19T04:07:35.643Z,53.51
2023-08-19T04:10:02.246Z,53.54
2023-08-19T04:12:28.618Z,53.80
2023-08-19T04:14:54.997Z,53.57
2023-08-19T04:17:21.451Z,53.97
2023-08-19T04:19:47.913Z,53.77
2023-08-19T04:22:16.451Z,53.59
2023-08-19T04:24:43.561Z,54.06
2023-08-19T04:27:10.003Z,53.83
2023-08-19T04:29:36.508Z,54.15
2023-08-19T04:32:03.932Z,54.29
2023-08-19T04:34:31.196Z,54.17
2023-08-19T04:36:57.574Z,54.09
2023-08-19T04:39:24.827Z,54.09
2023-08-19T04:41:51.437Z,54.49
2023-08-19T04:44:18.262Z,54.34
2023-08-19T04:46:44.668Z,54.70
2023-08-19T04:49:11.105Z,54.70
2023-08-19T04:51:37.557Z,54.58
2023-08-19T04:54:04.572Z,54.52
2023-08-19T04:56:31.346Z,54.12
2023-08-19T04:59:01.386Z,54.21
2023-08-19T05:01:28.727Z,54.49
2023-08-19T05:03:55.649Z,54.87
2023-08-19T05:06:22.930Z,54.44
2023-08-19T05:08:49.339Z,54.36
2023-08-19T05:11:15.750Z,54.52
2023-08-19T05:13:43.761Z,54.35
2023-08-19T05:16:13.442Z,54.13
2023-08-19T05:18:40.356Z,54.13
2023-08-19T05:21:06.731Z,53.92
2023-08-19T05:23:33.169Z,54.10
2023-08-19T05:25:59.678Z,53.98
2023-08-19T05:28:26.070Z,53.72
2023-08-19T05:30:52.458Z,53.79
2023-08-19T05:33:18.808Z,53.66
2023-08-19T05:35:45.215Z,53.34
2023-08-19T05:38:11.688Z,53.41
2023-08-19T05:40:38.086Z,53.20
2023-08-19T05:43:04.487Z,53.10
2023-08-19T05:45:33.813Z,53.21
2023-08-19T05:48:00.213Z,53.11
2023-08-19T05:50:27.720Z,52.93
2023-08-19T05:52:54.129Z,52.71
2023-08-19T05:55:20.621Z,52.43
2023-08-19T05:57:47.060Z,52.45
2023-08-19T06:00:13.605Z,52.31
2023-08-19T06:02:40.627Z,52.15
2023-08-19T06:05:07.579Z,51.95
2023-08-19T06:07:35.081Z,51.76
2023-08-19T06:10:01.879Z,51.50
2023-08-19T06:12:28.428Z,51.30
2023-08-19T06:14:54.810Z,51.16
2023-08-19T06:17:21.294Z,50.99
2023-08-19T06:19:47.781Z,50.72
2023-08-19T06:22:14.221Z,50.83
2023-08-19T06:24:40.633Z,50.67
2023-08-19T06:27:07.002Z,50.75
2023-08-19T06:29:33.421Z,50.48
2023-08-19T06:32:00.048Z,50.39
2023-08-19T06:34:26.776Z,50.63
2023-08-19T06:37:00.846Z,50.20
2023-08-19T06:39:28.367Z,50.25
2023-08-19T06:42:03.929Z,50.06
2023-08-19T06:44:31.456Z,49.85
2023-08-19T06:46:59.458Z,49.82
2023-08-19T06:49:26.173Z,49.88
2023-08-19T06:51:52.898Z,50.00
2023-08-19T06:54:19.529Z,49.86
2023-08-19T06:57:04.310Z,49.71
2023-08-19T06:59:40.729Z,49.57
2023-08-19T07:02:09.132Z,49.37
2023-08-19T07:04:36.429Z,49.29
2023-08-19T07:07:04.995Z,49.13
2023-08-19T07:09:32.389Z,48.95
2023-08-19T07:11:59.404Z,49.17
2023-08-19T07:14:27.271Z,48.96
2023-08-19T07:16:58.696Z,48.80
2023-08-19T07:19:35.143Z,48.84
2023-08-19T07:22:01.673Z,48.45
2023-08-19T07:24:29.244Z,48.29
2023-08-19T07:26:55.986Z,47.95
2023-08-19T07:29:22.739Z,47.84
2023-08-19T07:31:49.437Z,47.83
2023-08-19T07:34:15.920Z,47.42
2023-08-19T07:36:43.266Z,47.33
2023-08-19T07:39:09.635Z,47.71
2023-08-19T07:41:36.035Z,47.26
2023-08-19T07:44:02.398Z,46.99
2023-08-19T07:46:30.424Z,47.46
2023-08-19T07:48:56.801Z,47.13
2023-08-19T07:51:23.315Z,46.92
2023-08-19T07:53:49.699Z,47.04
2023-08-19T07:56:18.087Z,46.89
2023-08-19T07:58:45.463Z,47.16
2023-08-19T08:01:11.860Z,46.37
2023-08-19T08:03:41.292Z,46.74
2023-08-19T08:06:07.722Z,46.89
2023-08-19T08:08:34.172Z,46.57
2023-08-19T08:11:00.962Z,46.67
2023-08-19T08:13:27.407Z,46.19
2023-08-19T08:15:54.153Z,46.73
2023-08-19T08:18:20.593Z,46.11
2023-08-19T08:20:47.081Z,46.09
2023-08-19T08:23:13.523Z,45.73
2023-08-19T08:25:39.951Z,45.04
2023-08-19T08:28:07.889Z,44.85
2023-08-19T08:30:34.308Z,45.06
2023-08-19T08:33:03.819Z,45.00
2023-08-19T08:35:30.880Z,44.58
2023-08-19T08:37:57.253Z,44.58
2023-08-19T08:40:23.715Z,44.70
2023-08-19T08:42:52.255Z,43.74
2023-08-19T08:45:21.069Z,44.14
2023-08-19T08:47:48.155Z,43.54
2023-08-19T08:50:14.655Z,42.85
2023-08-19T08:52:41.663Z,43.39
2023-08-19T08:55:10.314Z,43.33
2023-08-19T08:57:36.719Z,43.04
2023-08-19T09:00:04.521Z,42.98
2023-08-19T09:02:31.638Z,43.33
2023-08-19T09:04:58.954Z,42.70
2023-08-19T09:07:29.688Z,42.58
2023-08-19T09:09:59.391Z,42.45
2023-08-19T09:12:27.123Z,42.67
2023-08-19T09:14:58.809Z,42.91
2023-08-19T09:17:25.205Z,42.29
2023-08-19T09:19:51.633Z,41.64
2023-08-19T09:22:17.945Z,41.50
2023-08-19T09:24:45.298Z,41.64
2023-08-19T09:27:12.798Z,41.44
2023-08-19T09:29:49.787Z,41.78
2023-08-19T09:32:16.258Z,41.36
2023-08-19T09:34:42.678Z,41.50
2023-08-19T09:37:13.281Z,41.89
2023-08-19T09:39:39.713Z,42.05
2023-08-19T09:42:09.325Z,42.32
2023-08-19T09:44:36.003Z,42.07
2023-08-19T09:47:03.555Z,42.38
2023-08-19T09:49:30.021Z,42.33
2023-08-19T09:51:57.481Z,41.87
2023-08-19T09:54:25.205Z,41.90
2023-08-19T09:56:59.450Z,42.20
2023-08-19T09:59:27.285Z,41.97
2023-08-19T10:01:54.510Z,41.64
2023-08-19T10:04:21.556Z,41.64
2023-08-19T10:06:51.789Z,42.28
2023-08-19T10:09:23.610Z,41.94
2023-08-19T10:11:55.792Z,42.26
2023-08-19T10:14:30.317Z,41.86
2023-08-19T10:17:01.655Z,42.04
2023-08-19T10:19:29.759Z,41.48
2023-08-19T10:21:58.580Z,41.06
2023-08-19T10:24:25.696Z,40.73
2023-08-19T10:26:52.171Z,40.46
2023-08-19T10:29:18.625Z,40.94
2023-08-19T10:31:45.077Z,40.83
2023-08-19T10:34:13.024Z,40.73
2023-08-19T10:36:40.489Z,40.70
2023-08-19T10:39:15.962Z,40.84
2023-08-19T10:41:42.676Z,41.88
2023-08-19T10:44:12.092Z,40.83
2023-08-19T10:46:42.804Z,40.64
2023-08-19T10:49:14.358Z,41.12
2023-08-19T10:51:50.113Z,41.28
2023-08-19T10:54:28.826Z,40.88
2023-08-19T10:57:13.659Z,40.76
2023-08-19T10:59:42.927Z,40.51
2023-08-19T11:02:10.220Z,40.13
2023-08-19T11:04:42.445Z,40.29
2023-08-19T11:07:09.814Z,39.88
2023-08-19T11:09:37.493Z,40.28
2023-08-19T11:12:04.836Z,40.40
2023-08-19T11:14:31.235Z,40.58
2023-08-19T11:16:57.821Z,40.18
2023-08-19T11:19:24.628Z,40.38
2023-08-19T11:21:52.002Z,40.62
2023-08-19T11:24:18.416Z,40.38
2023-08-19T11:26:49.113Z,40.25
2023-08-19T11:29:16.057Z,40.00
2023-08-19T11:31:44.051Z,39.74
2023-08-19T11:34:12.236Z,39.45
2023-08-19T11:36:39.754Z,39.09
2023-08-19T11:39:08.830Z,39.02
2023-08-19T11:41:37.817Z,38.49
2023-08-19T11:44:06.077Z,38.84
2023-08-19T11:46:36.508Z,39.37
2023-08-19T11:49:09.175Z,38.96
2023-08-19T11:51:39.575Z,38.11
2023-08-19T11:54:08.860Z,37.78
2023-08-19T11:56:54.780Z,37.68
2023-08-19T11:59:35.122Z,37.79
2023-08-19T12:02:06.654Z,37.45
2023-08-19T12:04:35.029Z,36.91
2023-08-19T12:07:25.546Z,37.61
2023-08-19T12:09:52.063Z,37.14
2023-08-19T12:12:19.029Z,37.56
2023-08-19T12:14:45.412Z,37.74
2023-08-19T12:17:12.846Z,38.06
2023-08-19T12:19:39.216Z,38.18
2023-08-19T12:22:05.994Z,38.02
2023-08-19T12:24:32.855Z,37.92
2023-08-19T12:26:59.333Z,37.01
2023-08-19T12:29:26.008Z,36.95
2023-08-19T12:31:52.481Z,37.34
2023-08-19T12:34:19.355Z,37.49
2023-08-19T12:36:45.804Z,37.55
2023-08-19T12:39:12.187Z,37.29
2023-08-19T12:41:39.293Z,37.26
2023-08-19T12:44:06.041Z,37.43
2023-08-19T12:46:41.476Z,37.60
2023-08-19T12:49:07.857Z,38.66
2023-08-19T12:51:34.308Z,38.76
2023-08-19T12:54:00.778Z,39.33
2023-08-19T12:56:27.256Z,40.07
2023-08-19T12:58:54.629Z,40.92
2023-08-19T13:01:21.074Z,40.91
2023-08-19T13:03:47.678Z,41.10
2023-08-19T13:06:14.093Z,41.02
2023-08-19T13:08:40.667Z,41.87
2023-08-19T13:11:07.074Z,41.91
2023-08-19T13:13:33.489Z,42.03
2023-08-19T13:15:59.901Z,42.03
2023-08-19T13:18:26.422Z,42.64
2023-08-19T13:20:52.775Z,41.91
2023-08-19T13:23:19.135Z,42.54
2023-08-19T13:25:45.569Z,42.92
2023-08-19T13:28:12.000Z,42.63
2023-08-19T13:30:38.410Z,43.50
2023-08-19T13:33:05.363Z,43.46
2023-08-19T13:35:35.429Z,43.51
2023-08-19T13:38:04.100Z,43.84
2023-08-19T13:40:30.547Z,44.13
2023-08-19T13:42:57.033Z,44.64
2023-08-19T13:45:23.499Z,44.49
2023-08-19T13:48:00.862Z,44.04
2023-08-19T13:50:36.928Z,44.65
2023-08-19T13:53:03.575Z,45.26
2023-08-19T13:55:29.946Z,45.64
2023-08-19T13:57:57.744Z,45.90
2023-08-19T14:00:24.204Z,45.72
2023-08-19T14:02:50.957Z,45.56
2023-08-19T14:05:17.469Z,45.65
2023-08-19T14:07:44.922Z,45.85
2023-08-19T14:10:12.112Z,46.13
2023-08-19T14:12:39.477Z,45.80
2023-08-19T14:15:08.891Z,45.86
2023-08-19T14:17:37.784Z,46.06
2023-08-19T14:20:07.678Z,46.09
2023-08-19T14:22:35.053Z,46.37
2023-08-19T14:25:01.501Z,46.56
2023-08-19T14:27:27.943Z,46.44
2023-08-19T14:29:54.414Z,46.18
2023-08-19T14:32:20.898Z,46.40
2023-08-19T14:34:47.384Z,46.62
2023-08-19T14:37:13.748Z,47.01
2023-08-19T14:39:40.139Z,47.53
2023-08-19T14:42:06.742Z,47.17
2023-08-19T14:44:33.541Z,47.18
2023-08-19T14:47:00.618Z,47.46
2023-08-19T14:49:27.098Z,47.63
2023-08-19T14:51:53.443Z,47.71
2023-08-19T14:54:19.798Z,47.79
2023-08-19T14:56:46.315Z,48.04
2023-08-19T14:59:12.780Z,48.17
2023-08-19T15:01:39.178Z,48.31
2023-08-19T15:04:06.097Z,48.55
2023-08-19T15:06:33.316Z,49.00
2023-08-19T15:08:59.740Z,49.30
2023-08-19T15:11:26.124Z,49.67
2023-08-19T15:13:52.530Z,50.02
2023-08-19T15:16:18.976Z,50.05
2023-08-19T15:18:45.351Z,50.53
2023-08-19T15:21:11.735Z,50.62
2023-08-19T15:23:38.190Z,51.17
2023-08-19T15:26:04.535Z,51.39
2023-08-19T15:28:30.933Z,51.47
2023-08-19T15:30:57.363Z,51.80
2023-08-19T15:33:23.742Z,52.43
2023-08-19T15:35:50.119Z,52.25
2023-08-19T15:38:16.563Z,51.81
2023-08-19T15:40:43.006Z,52.38
2023-08-19T15:43:09.404Z,52.00
2023-08-19T15:45:35.770Z,52.13
2023-08-19T15:48:02.256Z,52.55
2023-08-19T15:50:28.674Z,53.19
2023-08-19T15:52:55.072Z,53.95
2023-08-19T15:55:21.485Z,54.15
2023-08-19T15:57:48.046Z,54.44
2023-08-19T16:00:15.795Z,54.56
2023-08-19T16:02:42.974Z,54.36
2023-08-19T16:05:10.422Z,54.77
2023-08-19T16:07:41.846Z,54.71
2023-08-19T16:10:10.086Z,54.89
2023-08-19T16:12:38.297Z,54.37
2023-08-19T16:15:05.546Z,54.30
2023-08-19T16:17:32.107Z,54.82
2023-08-19T16:19:58.572Z,54.78
2023-08-19T16:22:25.013Z,54.66
2023-08-19T16:24:51.526Z,55.14
2023-08-19T16:27:17.950Z,55.37
2023-08-19T16:29:44.457Z,55.60
2023-08-19T16:32:10.916Z,56.17
2023-08-19T16:34:37.838Z,55.99
2023-08-19T16:37:06.373Z,56.70
2023-08-19T16:39:32.756Z,56.72
2023-08-19T16:41:59.152Z,56.92
2023-08-19T16:44:25.702Z,56.65
2023-08-19T16:46:52.281Z,57.32
2023-08-19T16:49:18.749Z,56.56
2023-08-19T16:51:45.716Z,56.95
2023-08-19T16:54:12.237Z,57.19
2023-08-19T16:56:38.680Z,56.70
2023-08-19T16:59:05.290Z,56.32
2023-08-19T17:01:31.741Z,56.70
2023-08-19T17:03:58.139Z,56.27
2023-08-19T17:06:24.591Z,56.52
2023-08-19T17:08:52.974Z,56.21
2023-08-19T17:11:19.573Z,55.24
2023-08-19T17:13:46.678Z,55.36
2023-08-19T17:16:13.106Z,54.79
2023-08-19T17:18:39.515Z,54.26
2023-08-19T17:21:05.888Z,53.26
2023-08-19T17:23:33.468Z,53.45
2023-08-19T17:25:59.842Z,53.43
2023-08-19T17:28:26.256Z,53.59
2023-08-19T17:31:03.313Z,53.10
2023-08-19T17:33:30.884Z,53.32
2023-08-19T17:36:03.782Z,52.76
2023-08-19T17:38:33.606Z,51.54
2023-08-19T17:41:04.507Z,51.67
2023-08-19T17:43:31.728Z,50.82
2023-08-19T17:46:02.742Z,50.70
2023-08-19T17:48:30.865Z,50.23
2023-08-19T17:50:57.504Z,49.88
2023-08-19T17:53:24.901Z,49.85
2023-08-19T17:56:01.176Z,48.88
2023-08-19T17:58:30.842Z,48.53
2023-08-19T18:00:58.355Z,48.20
2023-08-19T18:03:24.842Z,48.06
2023-08-19T18:05:51.322Z,48.48
2023-08-19T18:08:17.913Z,48.09
2023-08-19T18:10:45.354Z,48.08
2023-08-19T18:13:11.727Z,48.81
2023-08-19T18:15:38.367Z,48.24
2023-08-19T18:18:05.074Z,48.33
2023-08-19T18:20:31.719Z,48.52
2023-08-19T18:22:58.140Z,49.24
2023-08-19T18:25:24.545Z,48.97
2023-08-19T18:27:53.636Z,49.56
2023-08-19T18:30:20.980Z,49.86
2023-08-19T18:32:50.778Z,49.80
2023-08-19T18:35:19.147Z,50.48
2023-08-19T18:37:46.421Z,50.60
2023-08-19T18:40:15.313Z,50.57
2023-08-19T18:42:43.351Z,50.86
2023-08-19T18:45:12.498Z,51.07
2023-08-19T18:48:03.400Z,51.25
2023-08-19T18:50:30.225Z,51.63
2023-08-19T18:52:56.785Z,51.86
2023-08-19T18:55:23.351Z,52.15
2023-08-19T18:57:49.762Z,52.91
2023-08-19T19:00:16.845Z,52.72
2023-08-19T19:02:43.344Z,52.95
2023-08-19T19:05:09.781Z,52.54
2023-08-19T19:07:37.386Z,53.11
2023-08-19T19:10:04.199Z,52.99
2023-08-19T19:12:30.625Z,53.02
2023-08-19T19:14:57.170Z,53.57
2023-08-19T19:17:23.583Z,53.82
2023-08-19T19:19:50.009Z,53.84
2023-08-19T19:22:16.423Z,54.08
2023-08-19T19:24:42.790Z,54.24
2023-08-19T19:27:09.169Z,54.43
2023-08-19T19:29:35.567Z,54.39
2023-08-19T19:32:01.960Z,54.56
2023-08-19T19:34:28.394Z,54.21
2023-08-19T19:36:54.815Z,54.42
2023-08-19T19:39:21.226Z,54.91
2023-08-19T19:41:47.598Z,55.02
2023-08-19T19:44:13.998Z,55.30
2023-08-19T19:46:40.387Z,55.36
2023-08-19T19:49:06.933Z,55.48
2023-08-19T19:51:33.543Z,55.73
2023-08-19T19:53:59.924Z,55.88
2023-08-19T19:56:26.286Z,56.04
2023-08-19T19:58:52.675Z,56.06
2023-08-19T20:01:20.576Z,55.91
2023-08-19T20:03:47.194Z,55.98
2023-08-19T20:06:13.673Z,56.36
2023-08-19T20:08:40.054Z,56.60
2023-08-19T20:11:06.406Z,56.64
2023-08-19T20:13:32.924Z,56.43
2023-08-19T20:15:59.404Z,56.56
2023-08-19T20:18:25.837Z,56.78
2023-08-19T20:20:52.409Z,57.01
2023-08-19T20:23:18.790Z,57.25
2023-08-19T20:25:45.198Z,57.65
2023-08-19T20:28:11.600Z,57.88
2023-08-19T20:30:41.448Z,58.09
2023-08-19T20:33:08.217Z,58.00
2023-08-19T20:35:36.952Z,58.50
2023-08-19T20:38:04.892Z,58.72
2023-08-19T20:40:33.578Z,58.97
2023-08-19T20:43:00.084Z,58.77
2023-08-19T20:45:26.519Z,59.35
2023-08-19T20:47:55.470Z,59.62
2023-08-19T20:50:21.901Z,59.76
2023-08-19T20:52:48.312Z,59.86
2023-08-19T20:55:14.692Z,59.72
2023-08-19T20:57:41.107Z,60.30
2023-08-19T21:00:08.074Z,60.70
2023-08-19T21:02:34.723Z,60.60
2023-08-19T21:05:01.251Z,60.81
2023-08-19T21:07:30.934Z,60.59
2023-08-19T21:09:57.599Z,60.99
2023-08-19T21:12:24.005Z,60.52
2023-08-19T21:14:50.900Z,60.83
2023-08-19T21:17:17.266Z,60.58
2023-08-19T21:19:45.245Z,60.71
2023-08-19T21:22:11.613Z,60.59
2023-08-19T21:24:38.070Z,60.80
2023-08-19T21:27:04.751Z,60.43
2023-08-19T21:29:31.144Z,60.88
2023-08-19T21:31:57.557Z,60.10
2023-08-19T21:34:23.990Z,59.99
2023-08-19T21:36:50.342Z,60.47
2023-08-19T21:39:16.792Z,59.50
2023-08-19T21:41:43.142Z,59.25
2023-08-19T21:44:09.602Z,59.22
2023-08-19T21:46:35.997Z,58.48
2023-08-19T21:49:02.433Z,58.89
2023-08-19T21:51:28.872Z,58.72
2023-08-19T21:53:55.328Z,58.88
2023-08-19T21:56:21.750Z,58.52
2023-08-19T21:58:48.131Z,58.72
2023-08-19T22:01:14.676Z,58.59
2023-08-19T22:03:41.051Z,58.80
2023-08-19T22:06:07.449Z,58.50
2023-08-19T22:08:33.942Z,57.77
2023-08-19T22:11:00.369Z,57.78
2023-08-19T22:13:26.768Z,57.52
2023-08-19T22:15:53.220Z,57.51
2023-08-19T22:18:19.602Z,56.41
2023-08-19T22:20:51.452Z,56.43
2023-08-19T22:23:19.066Z,56.39
2023-08-19T22:25:45.603Z,56.27
2023-08-19T22:28:12.054Z,56.78
2023-08-19T22:30:38.752Z,56.73
2023-08-19T22:33:05.395Z,56.74
2023-08-19T22:35:31.907Z,55.76
2023-08-19T22:37:58.400Z,56.67
2023-08-19T22:40:24.855Z,55.93
2023-08-19T22:42:51.227Z,55.10
2023-08-19T22:45:17.623Z,55.31
2023-08-19T22:47:45.386Z,55.52
2023-08-19T22:50:12.179Z,55.87
2023-08-19T22:52:38.673Z,55.58
2023-08-19T22:55:05.507Z,56.01
2023-08-19T22:57:31.915Z,56.15
2023-08-19T23:00:00.476Z,55.95
2023-08-19T23:02:27.374Z,56.36
2023-08-19T23:04:54.152Z,56.49
2023-08-19T23:07:20.625Z,56.69
2023-08-19T23:09:47.006Z,56.68
2023-08-19T23:12:13.711Z,56.64
2023-08-19T23:14:40.224Z,57.08
2023-08-19T23:17:06.702Z,56.32
2023-08-19T23:19:33.520Z,57.02
2023-08-19T23:22:00.226Z,56.56
2023-08-19T23:24:27.114Z,56.70
2023-08-19T23:26:53.661Z,57.02
2023-08-19T23:29:20.064Z,57.10
2023-08-19T23:31:46.607Z,57.07
2023-08-19T23:34:13.031Z,57.46
2023-08-19T23:36:39.458Z,57.64
2023-08-19T23:39:08.488Z,57.48
2023-08-19T23:41:36.045Z,57.89
2023-08-19T23:44:03.242Z,57.61
2023-08-19T23:46:29.796Z,57.18
2023-08-19T23:48:56.749Z,57.67
2023-08-19T23:51:25.511Z,57.36
2023-08-19T23:53:54.535Z,57.69
2023-08-19T23:56:21.218Z,58.00
2023-08-19T23:58:47.873Z,57.88
